sensor_id;sensor_type;location;lat;lon;timestamp;pressure;altitude;pressure_sealevel;temperature;humidity
35331;BME280;21441;52.190;20.910;2022-09-02T00:01:28;100802.47;;;12.62;62.73
35331;BME280;21441;52.190;20.910;2022-09-02T00:03:59;100800.16;;;12.58;63.13
35331;BME280;21441;52.190;20.910;2022-09-02T00:06:28;100799.16;;;12.59;63.09
35331;BME280;21441;52.190;20.910;2022-09-02T00:08:56;100800.47;;;12.55;63.59
35331;BME280;21441;52.190;20.910;2022-09-02T00:11:24;100788.44;;;12.51;63.76
35331;BME280;21441;52.190;20.910;2022-09-02T00:13:53;100794.81;;;12.50;64.20
35331;BME280;21441;52.190;20.910;2022-09-02T00:16:22;100788.63;;;12.50;64.08
35331;BME280;21441;52.190;20.910;2022-09-02T00:18:50;100795.19;;;12.39;64.71
35331;BME280;21441;52.190;20.910;2022-09-02T00:21:20;100800.03;;;12.35;64.82
35331;BME280;21441;52.190;20.910;2022-09-02T00:23:48;100789.66;;;12.41;64.64
35331;BME280;21441;52.190;20.910;2022-09-02T00:26:16;100795.34;;;12.37;64.77
35331;BME280;21441;52.190;20.910;2022-09-02T00:28:43;100793.50;;;12.38;64.75
35331;BME280;21441;52.190;20.910;2022-09-02T00:31:11;100793.50;;;12.38;65.21
35331;BME280;21441;52.190;20.910;2022-09-02T00:33:38;100794.66;;;12.35;65.07
35331;BME280;21441;52.190;20.910;2022-09-02T00:36:06;100800.38;;;12.32;65.46
35331;BME280;21441;52.190;20.910;2022-09-02T00:38:35;100800.53;;;12.31;65.48
35331;BME280;21441;52.190;20.910;2022-09-02T00:41:06;100794.00;;;12.33;65.58
35331;BME280;21441;52.190;20.910;2022-09-02T00:43:40;100806.88;;;12.38;65.42
35331;BME280;21441;52.190;20.910;2022-09-02T00:46:08;100797.84;;;12.39;65.21
35331;BME280;21441;52.190;20.910;2022-09-02T00:48:37;100800.19;;;12.42;65.15
35331;BME280;21441;52.190;20.910;2022-09-02T00:51:06;100800.16;;;12.50;64.63
35331;BME280;21441;52.190;20.910;2022-09-02T00:53:35;100804.19;;;12.46;64.86
35331;BME280;21441;52.190;20.910;2022-09-02T00:56:05;100807.84;;;12.53;64.41
35331;BME280;21441;52.190;20.910;2022-09-02T00:58:34;100808.19;;;12.50;64.61
35331;BME280;21441;52.190;20.910;2022-09-02T01:01:02;100803.88;;;12.49;65.02
35331;BME280;21441;52.190;20.910;2022-09-02T01:03:31;100808.34;;;12.49;64.79
35331;BME280;21441;52.190;20.910;2022-09-02T01:05:59;100805.53;;;12.42;65.08
35331;BME280;21441;52.190;20.910;2022-09-02T01:08:31;100799.50;;;12.40;64.82
35331;BME280;21441;52.190;20.910;2022-09-02T01:11:01;100809.22;;;12.41;65.13
35331;BME280;21441;52.190;20.910;2022-09-02T01:13:35;100802.53;;;12.45;65.21
35331;BME280;21441;52.190;20.910;2022-09-02T01:16:15;100801.88;;;12.35;65.32
35331;BME280;21441;52.190;20.910;2022-09-02T01:18:45;100798.88;;;12.22;65.73
35331;BME280;21441;52.190;20.910;2022-09-02T01:21:13;100801.38;;;12.23;66.40
35331;BME280;21441;52.190;20.910;2022-09-02T01:23:41;100805.03;;;12.22;65.90
35331;BME280;21441;52.190;20.910;2022-09-02T01:26:08;100802.06;;;12.17;66.27
35331;BME280;21441;52.190;20.910;2022-09-02T01:28:36;100801.38;;;12.15;66.23
35331;BME280;21441;52.190;20.910;2022-09-02T01:31:04;100805.53;;;12.09;66.19
35331;BME280;21441;52.190;20.910;2022-09-02T01:33:31;100801.53;;;12.05;67.02
35331;BME280;21441;52.190;20.910;2022-09-02T01:35:58;100802.03;;;12.01;67.01
35331;BME280;21441;52.190;20.910;2022-09-02T01:38:27;100796.38;;;12.04;66.90
35331;BME280;21441;52.190;20.910;2022-09-02T01:40:55;100798.84;;;12.05;67.21
35331;BME280;21441;52.190;20.910;2022-09-02T01:43:25;100803.38;;;11.96;67.24
35331;BME280;21441;52.190;20.910;2022-09-02T01:45:53;100795.84;;;11.92;67.69
35331;BME280;21441;52.190;20.910;2022-09-02T01:48:21;100796.88;;;11.91;67.54
35331;BME280;21441;52.190;20.910;2022-09-02T01:50:51;100798.88;;;11.89;67.72
35331;BME280;21441;52.190;20.910;2022-09-02T01:53:18;100806.53;;;11.84;68.02
35331;BME280;21441;52.190;20.910;2022-09-02T01:55:45;100813.06;;;11.89;67.91
35331;BME280;21441;52.190;20.910;2022-09-02T01:58:13;100811.06;;;11.91;67.84
35331;BME280;21441;52.190;20.910;2022-09-02T02:00:40;100801.03;;;11.93;67.76
35331;BME280;21441;52.190;20.910;2022-09-02T02:03:07;100804.22;;;11.97;67.62
35331;BME280;21441;52.190;20.910;2022-09-02T02:05:34;100803.72;;;11.93;67.79
35331;BME280;21441;52.190;20.910;2022-09-02T02:08:01;100810.56;;;11.96;68.10
35331;BME280;21441;52.190;20.910;2022-09-02T02:10:28;100811.22;;;11.98;67.98
35331;BME280;21441;52.190;20.910;2022-09-02T02:12:55;100812.72;;;12.01;68.12
35331;BME280;21441;52.190;20.910;2022-09-02T02:15:23;100805.88;;;12.06;67.80
35331;BME280;21441;52.190;20.910;2022-09-02T02:17:50;100808.06;;;12.11;67.66
35331;BME280;21441;52.190;20.910;2022-09-02T02:20:18;100805.53;;;12.09;67.83
35331;BME280;21441;52.190;20.910;2022-09-02T02:22:46;100802.88;;;11.93;68.42
35331;BME280;21441;52.190;20.910;2022-09-02T02:25:15;100799.88;;;11.96;68.57
35331;BME280;21441;52.190;20.910;2022-09-02T02:27:43;100794.69;;;11.94;68.82
35331;BME280;21441;52.190;20.910;2022-09-02T02:30:12;100801.38;;;11.90;69.06
35331;BME280;21441;52.190;20.910;2022-09-02T02:32:41;100807.72;;;11.89;69.49
35331;BME280;21441;52.190;20.910;2022-09-02T02:35:09;100796.31;;;11.87;69.52
35331;BME280;21441;52.190;20.910;2022-09-02T02:37:36;100798.81;;;11.81;69.89
35331;BME280;21441;52.190;20.910;2022-09-02T02:40:04;100786.47;;;11.80;70.21
35331;BME280;21441;52.190;20.910;2022-09-02T02:42:31;100794.16;;;11.83;69.82
35331;BME280;21441;52.190;20.910;2022-09-02T02:44:59;100796.66;;;11.76;70.26
35331;BME280;21441;52.190;20.910;2022-09-02T02:47:25;100793.97;;;11.76;70.17
35331;BME280;21441;52.190;20.910;2022-09-02T02:49:54;100790.13;;;11.70;70.33
35331;BME280;21441;52.190;20.910;2022-09-02T02:52:21;100787.28;;;11.64;70.23
35331;BME280;21441;52.190;20.910;2022-09-02T02:54:47;100786.28;;;11.65;70.57
35331;BME280;21441;52.190;20.910;2022-09-02T02:57:14;100792.94;;;11.61;70.66
35331;BME280;21441;52.190;20.910;2022-09-02T02:59:41;100792.78;;;11.62;70.75
35331;BME280;21441;52.190;20.910;2022-09-02T03:02:08;100793.47;;;11.64;70.83
35331;BME280;21441;52.190;20.910;2022-09-02T03:04:35;100799.78;;;11.63;71.18
35331;BME280;21441;52.190;20.910;2022-09-02T03:07:05;100801.78;;;11.61;71.33
35331;BME280;21441;52.190;20.910;2022-09-02T03:09:33;100791.44;;;11.58;71.70
35331;BME280;21441;52.190;20.910;2022-09-02T03:12:00;100791.78;;;11.55;72.08
35331;BME280;21441;52.190;20.910;2022-09-02T03:14:27;100792.09;;;11.52;72.08
35331;BME280;21441;52.190;20.910;2022-09-02T03:16:55;100792.91;;;11.52;72.61
35331;BME280;21441;52.190;20.910;2022-09-02T03:19:22;100790.44;;;11.51;72.78
35331;BME280;21441;52.190;20.910;2022-09-02T03:21:49;100797.41;;;11.44;73.10
35331;BME280;21441;52.190;20.910;2022-09-02T03:24:17;100800.56;;;11.39;73.81
35331;BME280;21441;52.190;20.910;2022-09-02T03:26:45;100801.03;;;11.18;75.05
35331;BME280;21441;52.190;20.910;2022-09-02T03:29:12;100802.38;;;11.30;74.38
35331;BME280;21441;52.190;20.910;2022-09-02T03:31:39;100806.78;;;11.40;73.84
35331;BME280;21441;52.190;20.910;2022-09-02T03:34:06;100808.25;;;11.34;74.15
35331;BME280;21441;52.190;20.910;2022-09-02T03:36:35;100806.50;;;11.17;75.07
35331;BME280;21441;52.190;20.910;2022-09-02T03:39:03;100804.88;;;11.24;75.09
35331;BME280;21441;52.190;20.910;2022-09-02T03:41:32;100804.56;;;11.35;74.59
35331;BME280;21441;52.190;20.910;2022-09-02T03:43:59;100806.09;;;11.38;74.54
35331;BME280;21441;52.190;20.910;2022-09-02T03:46:27;100803.09;;;11.41;74.89
35331;BME280;21441;52.190;20.910;2022-09-02T03:48:54;100807.03;;;11.20;75.54
35331;BME280;21441;52.190;20.910;2022-09-02T03:51:22;100816.53;;;11.14;75.70
35331;BME280;21441;52.190;20.910;2022-09-02T03:53:49;100811.31;;;11.05;76.77
35331;BME280;21441;52.190;20.910;2022-09-02T03:56:17;100820.00;;;11.07;76.61
35331;BME280;21441;52.190;20.910;2022-09-02T03:58:46;100828.22;;;11.22;75.80
35331;BME280;21441;52.190;20.910;2022-09-02T04:01:15;100828.41;;;11.20;76.01
35331;BME280;21441;52.190;20.910;2022-09-02T04:03:43;100838.63;;;11.33;75.35
35331;BME280;21441;52.190;20.910;2022-09-02T04:06:10;100833.28;;;11.33;75.13
35331;BME280;21441;52.190;20.910;2022-09-02T04:08:37;100831.88;;;11.55;73.97
35331;BME280;21441;52.190;20.910;2022-09-02T04:11:06;100830.88;;;11.64;73.30
35331;BME280;21441;52.190;20.910;2022-09-02T04:13:32;100833.22;;;11.75;72.80
35331;BME280;21441;52.190;20.910;2022-09-02T04:16:05;100830.88;;;11.64;73.28
35331;BME280;21441;52.190;20.910;2022-09-02T04:18:33;100841.09;;;11.85;72.21
35331;BME280;21441;52.190;20.910;2022-09-02T04:21:00;100836.56;;;11.69;71.84
35331;BME280;21441;52.190;20.910;2022-09-02T04:23:27;100844.66;;;11.94;71.21
35331;BME280;21441;52.190;20.910;2022-09-02T04:25:54;100850.69;;;12.12;70.21
35331;BME280;21441;52.190;20.910;2022-09-02T04:28:21;100847.00;;;12.13;69.61
35331;BME280;21441;52.190;20.910;2022-09-02T04:30:48;100847.84;;;12.06;70.37
35331;BME280;21441;52.190;20.910;2022-09-02T04:33:16;100849.50;;;12.39;69.18
35331;BME280;21441;52.190;20.910;2022-09-02T04:35:44;100842.47;;;12.63;67.89
35331;BME280;21441;52.190;20.910;2022-09-02T04:38:12;100852.31;;;12.87;67.06
35331;BME280;21441;52.190;20.910;2022-09-02T04:40:40;100852.31;;;12.87;66.55
35331;BME280;21441;52.190;20.910;2022-09-02T04:43:08;100850.97;;;12.83;66.73
35331;BME280;21441;52.190;20.910;2022-09-02T04:45:38;100842.84;;;13.08;65.83
35331;BME280;21441;52.190;20.910;2022-09-02T04:48:05;100850.72;;;13.09;65.74
35331;BME280;21441;52.190;20.910;2022-09-02T04:50:34;100842.38;;;13.44;64.44
35331;BME280;21441;52.190;20.910;2022-09-02T04:53:02;100843.78;;;13.39;64.51
35331;BME280;21441;52.190;20.910;2022-09-02T04:55:29;100842.88;;;13.47;64.29
35331;BME280;21441;52.190;20.910;2022-09-02T04:57:56;100852.78;;;13.47;64.52
35331;BME280;21441;52.190;20.910;2022-09-02T05:00:23;100840.63;;;13.59;64.29
35331;BME280;21441;52.190;20.910;2022-09-02T05:02:52;100842.16;;;13.61;64.07
35331;BME280;21441;52.190;20.910;2022-09-02T05:05:20;100848.69;;;13.59;64.12
35331;BME280;21441;52.190;20.910;2022-09-02T05:07:48;100849.22;;;13.54;63.82
35331;BME280;21441;52.190;20.910;2022-09-02T05:10:15;100852.28;;;13.43;64.88
35331;BME280;21441;52.190;20.910;2022-09-02T05:12:42;100848.09;;;13.49;64.96
35331;BME280;21441;52.190;20.910;2022-09-02T05:15:10;100849.25;;;13.77;63.96
35331;BME280;21441;52.190;20.910;2022-09-02T05:17:38;100844.50;;;13.88;63.41
35331;BME280;21441;52.190;20.910;2022-09-02T05:20:06;100852.19;;;13.91;63.48
35331;BME280;21441;52.190;20.910;2022-09-02T05:22:34;100847.06;;;14.04;63.55
35331;BME280;21441;52.190;20.910;2022-09-02T05:25:03;100846.28;;;14.18;62.83
35331;BME280;21441;52.190;20.910;2022-09-02T05:27:32;100842.56;;;14.42;62.49
35331;BME280;21441;52.190;20.910;2022-09-02T05:29:59;100849.00;;;14.56;61.74
35331;BME280;21441;52.190;20.910;2022-09-02T05:32:26;100848.38;;;14.84;61.06
35331;BME280;21441;52.190;20.910;2022-09-02T05:34:53;100843.31;;;14.89;60.43
35331;BME280;21441;52.190;20.910;2022-09-02T05:37:21;100837.91;;;15.19;59.31
35331;BME280;21441;52.190;20.910;2022-09-02T05:39:49;100845.31;;;15.32;58.09
35331;BME280;21441;52.190;20.910;2022-09-02T05:42:17;100840.28;;;15.43;57.45
35331;BME280;21441;52.190;20.910;2022-09-02T05:44:45;100841.72;;;15.24;57.89
35331;BME280;21441;52.190;20.910;2022-09-02T05:47:13;100848.16;;;15.60;57.01
35331;BME280;21441;52.190;20.910;2022-09-02T05:49:39;100847.16;;;15.82;55.88
35331;BME280;21441;52.190;20.910;2022-09-02T05:52:06;100843.41;;;15.98;55.87
35331;BME280;21441;52.190;20.910;2022-09-02T05:54:37;100842.31;;;15.93;55.56
35331;BME280;21441;52.190;20.910;2022-09-02T05:57:07;100847.66;;;16.07;55.15
35331;BME280;21441;52.190;20.910;2022-09-02T05:59:37;100848.25;;;16.31;54.38
35331;BME280;21441;52.190;20.910;2022-09-02T06:02:07;100854.38;;;16.18;54.37
35331;BME280;21441;52.190;20.910;2022-09-02T06:04:36;100852.75;;;16.24;54.56
35331;BME280;21441;52.190;20.910;2022-09-02T06:07:03;100847.47;;;16.37;54.36
35331;BME280;21441;52.190;20.910;2022-09-02T06:09:30;100846.31;;;16.46;53.61
35331;BME280;21441;52.190;20.910;2022-09-02T06:11:57;100850.56;;;16.56;53.92
35331;BME280;21441;52.190;20.910;2022-09-02T06:14:25;100852.16;;;16.50;54.34
35331;BME280;21441;52.190;20.910;2022-09-02T06:16:54;100849.94;;;16.32;54.65
35331;BME280;21441;52.190;20.910;2022-09-02T06:19:22;100853.75;;;16.73;53.32
35331;BME280;21441;52.190;20.910;2022-09-02T06:21:51;100850.28;;;16.50;53.47
35331;BME280;21441;52.190;20.910;2022-09-02T06:24:18;100858.94;;;16.46;54.49
35331;BME280;21441;52.190;20.910;2022-09-02T06:26:46;100856.41;;;16.94;52.33
35331;BME280;21441;52.190;20.910;2022-09-02T06:29:13;100859.97;;;17.01;52.60
35331;BME280;21441;52.190;20.910;2022-09-02T06:31:41;100859.16;;;17.01;52.18
35331;BME280;21441;52.190;20.910;2022-09-02T06:34:09;100862.16;;;17.13;51.90
35331;BME280;21441;52.190;20.910;2022-09-02T06:36:40;100864.91;;;16.91;52.28
35331;BME280;21441;52.190;20.910;2022-09-02T06:39:10;100858.16;;;17.02;51.78
35331;BME280;21441;52.190;20.910;2022-09-02T06:41:38;100863.63;;;16.87;52.46
35331;BME280;21441;52.190;20.910;2022-09-02T06:44:07;100864.75;;;16.99;52.28
35331;BME280;21441;52.190;20.910;2022-09-02T06:46:37;100860.03;;;17.08;51.49
35331;BME280;21441;52.190;20.910;2022-09-02T06:49:06;100858.25;;;17.22;50.98
35331;BME280;21441;52.190;20.910;2022-09-02T06:51:37;100865.09;;;17.24;50.94
35331;BME280;21441;52.190;20.910;2022-09-02T06:54:06;100865.03;;;17.11;51.21
35331;BME280;21441;52.190;20.910;2022-09-02T06:56:34;100871.53;;;17.30;51.02
35331;BME280;21441;52.190;20.910;2022-09-02T06:59:02;100875.22;;;17.16;51.82
35331;BME280;21441;52.190;20.910;2022-09-02T07:01:31;100867.19;;;17.29;51.33
35331;BME280;21441;52.190;20.910;2022-09-02T07:03:59;100871.19;;;17.40;51.95
35331;BME280;21441;52.190;20.910;2022-09-02T07:06:46;100870.56;;;17.86;49.51
35331;BME280;21441;52.190;20.910;2022-09-02T07:09:15;100871.59;;;17.98;49.65
35331;BME280;21441;52.190;20.910;2022-09-02T07:11:43;100873.63;;;17.83;49.78
35331;BME280;21441;52.190;20.910;2022-09-02T07:14:12;100877.72;;;17.59;50.10
35331;BME280;21441;52.190;20.910;2022-09-02T07:16:44;100872.91;;;17.61;50.62
35331;BME280;21441;52.190;20.910;2022-09-02T07:19:11;100867.97;;;17.71;49.98
35331;BME280;21441;52.190;20.910;2022-09-02T07:21:39;100869.06;;;17.77;49.37
35331;BME280;21441;52.190;20.910;2022-09-02T07:24:08;100880.41;;;17.59;49.55
35331;BME280;21441;52.190;20.910;2022-09-02T07:26:36;100877.28;;;17.55;50.00
35331;BME280;21441;52.190;20.910;2022-09-02T07:29:04;100881.28;;;17.79;50.20
35331;BME280;21441;52.190;20.910;2022-09-02T07:31:34;100872.56;;;17.77;49.59
35331;BME280;21441;52.190;20.910;2022-09-02T07:34:01;100880.00;;;17.62;49.77
35331;BME280;21441;52.190;20.910;2022-09-02T07:36:29;100876.50;;;17.68;49.82
35331;BME280;21441;52.190;20.910;2022-09-02T07:38:55;100877.84;;;17.99;49.21
35331;BME280;21441;52.190;20.910;2022-09-02T07:41:24;100876.19;;;18.04;48.66
35331;BME280;21441;52.190;20.910;2022-09-02T07:43:51;100870.63;;;18.26;47.87
35331;BME280;21441;52.190;20.910;2022-09-02T07:46:19;100873.25;;;17.92;49.45
35331;BME280;21441;52.190;20.910;2022-09-02T07:48:46;100889.31;;;17.59;50.00
35331;BME280;21441;52.190;20.910;2022-09-02T07:51:16;100882.19;;;18.00;49.04
35331;BME280;21441;52.190;20.910;2022-09-02T07:53:43;100874.94;;;18.07;48.04
35331;BME280;21441;52.190;20.910;2022-09-02T07:56:12;100876.81;;;18.00;49.29
35331;BME280;21441;52.190;20.910;2022-09-02T07:58:41;100867.09;;;18.45;47.94
35331;BME280;21441;52.190;20.910;2022-09-02T08:01:09;100872.91;;;18.75;46.44
35331;BME280;21441;52.190;20.910;2022-09-02T08:03:36;100874.78;;;18.55;47.54
35331;BME280;21441;52.190;20.910;2022-09-02T08:06:05;100875.81;;;18.74;47.29
35331;BME280;21441;52.190;20.910;2022-09-02T08:08:32;100873.31;;;18.72;45.85
35331;BME280;21441;52.190;20.910;2022-09-02T08:10:59;100871.22;;;18.74;46.16
35331;BME280;21441;52.190;20.910;2022-09-02T08:13:26;100870.41;;;18.61;46.97
35331;BME280;21441;52.190;20.910;2022-09-02T08:15:55;100868.97;;;18.85;45.72
35331;BME280;21441;52.190;20.910;2022-09-02T08:18:22;100865.63;;;18.63;45.23
35331;BME280;21441;52.190;20.910;2022-09-02T08:20:49;100855.22;;;19.00;44.88
35331;BME280;21441;52.190;20.910;2022-09-02T08:23:16;100862.44;;;19.19;42.74
35331;BME280;21441;52.190;20.910;2022-09-02T08:25:43;100859.59;;;18.87;43.28
35331;BME280;21441;52.190;20.910;2022-09-02T08:28:10;100860.63;;;18.53;44.27
35331;BME280;21441;52.190;20.910;2022-09-02T08:30:37;100861.25;;;18.68;44.60
35331;BME280;21441;52.190;20.910;2022-09-02T08:33:06;100857.09;;;18.92;45.35
35331;BME280;21441;52.190;20.910;2022-09-02T08:35:33;100852.63;;;19.25;44.36
35331;BME280;21441;52.190;20.910;2022-09-02T08:38:00;100852.50;;;19.06;44.95
35331;BME280;21441;52.190;20.910;2022-09-02T08:40:32;100850.47;;;19.47;43.38
35331;BME280;21441;52.190;20.910;2022-09-02T08:43:02;100853.56;;;19.57;42.75
35331;BME280;21441;52.190;20.910;2022-09-02T08:45:32;100852.28;;;19.59;43.14
35331;BME280;21441;52.190;20.910;2022-09-02T08:48:09;100847.00;;;19.78;41.73
35331;BME280;21441;52.190;20.910;2022-09-02T08:50:39;100851.16;;;20.12;40.62
35331;BME280;21441;52.190;20.910;2022-09-02T08:53:14;100847.03;;;20.10;40.58
35331;BME280;21441;52.190;20.910;2022-09-02T08:55:44;100850.41;;;20.05;40.92
35331;BME280;21441;52.190;20.910;2022-09-02T08:58:16;100848.28;;;19.24;41.34
35331;BME280;21441;52.190;20.910;2022-09-02T09:00:45;100851.91;;;19.49;40.84
35331;BME280;21441;52.190;20.910;2022-09-02T09:03:23;100842.75;;;19.95;40.64
35331;BME280;21441;52.190;20.910;2022-09-02T09:05:58;100842.94;;;19.55;40.72
35331;BME280;21441;52.190;20.910;2022-09-02T09:08:32;100846.50;;;20.51;39.19
35331;BME280;21441;52.190;20.910;2022-09-02T09:11:09;100836.72;;;20.75;37.12
35331;BME280;21441;52.190;20.910;2022-09-02T09:13:54;100835.09;;;20.68;36.83
35331;BME280;21441;52.190;20.910;2022-09-02T09:16:29;100832.94;;;20.26;37.01
35331;BME280;21441;52.190;20.910;2022-09-02T09:19:07;100832.69;;;19.64;38.70
35331;BME280;21441;52.190;20.910;2022-09-02T09:21:36;100832.69;;;20.59;38.49
35331;BME280;21441;52.190;20.910;2022-09-02T09:24:17;100832.56;;;20.91;36.07
35331;BME280;21441;52.190;20.910;2022-09-02T09:26:47;100832.78;;;20.21;37.38
35331;BME280;21441;52.190;20.910;2022-09-02T09:29:15;100833.94;;;20.57;37.01
35331;BME280;21441;52.190;20.910;2022-09-02T09:31:53;100828.53;;;20.57;36.79
35331;BME280;21441;52.190;20.910;2022-09-02T09:34:23;100821.56;;;21.05;33.51
35331;BME280;21441;52.190;20.910;2022-09-02T09:36:52;100820.97;;;21.21;33.80
35331;BME280;21441;52.190;20.910;2022-09-02T09:39:25;100828.81;;;21.48;33.75
35331;BME280;21441;52.190;20.910;2022-09-02T09:41:55;100817.50;;;21.93;34.11
35331;BME280;21441;52.190;20.910;2022-09-02T09:44:41;100820.63;;;21.66;34.01
35331;BME280;21441;52.190;20.910;2022-09-02T09:47:14;100812.50;;;21.78;34.14
35331;BME280;21441;52.190;20.910;2022-09-02T09:49:46;100817.75;;;22.33;32.09
35331;BME280;21441;52.190;20.910;2022-09-02T09:52:24;100813.00;;;22.52;32.18
35331;BME280;21441;52.190;20.910;2022-09-02T09:55:09;100808.50;;;22.22;33.47
35331;BME280;21441;52.190;20.910;2022-09-02T09:57:37;100819.47;;;21.43;34.00
35331;BME280;21441;52.190;20.910;2022-09-02T10:00:10;100814.97;;;20.32;34.84
35331;BME280;21441;52.190;20.910;2022-09-02T10:02:46;100808.41;;;21.38;33.46
35331;BME280;21441;52.190;20.910;2022-09-02T10:05:22;100804.53;;;21.34;33.87
35331;BME280;21441;52.190;20.910;2022-09-02T10:07:54;100801.34;;;21.37;34.27
35331;BME280;21441;52.190;20.910;2022-09-02T10:10:23;100793.31;;;21.91;33.46
35331;BME280;21441;52.190;20.910;2022-09-02T10:12:53;100795.94;;;22.92;32.21
35331;BME280;21441;52.190;20.910;2022-09-02T10:15:28;100792.88;;;22.89;31.88
35331;BME280;21441;52.190;20.910;2022-09-02T10:18:03;100790.50;;;22.21;30.47
35331;BME280;21441;52.190;20.910;2022-09-02T10:20:45;100791.22;;;22.17;31.26
35331;BME280;21441;52.190;20.910;2022-09-02T10:23:20;100779.94;;;22.32;31.44
35331;BME280;21441;52.190;20.910;2022-09-02T10:25:58;100787.69;;;22.63;31.44
35331;BME280;21441;52.190;20.910;2022-09-02T10:28:40;100780.22;;;23.06;29.33
35331;BME280;21441;52.190;20.910;2022-09-02T10:31:15;100784.19;;;22.51;29.87
35331;BME280;21441;52.190;20.910;2022-09-02T10:33:55;100780.81;;;22.84;29.08
35331;BME280;21441;52.190;20.910;2022-09-02T10:36:33;100775.94;;;22.98;29.49
35331;BME280;21441;52.190;20.910;2022-09-02T10:39:13;100778.88;;;23.20;28.86
35331;BME280;21441;52.190;20.910;2022-09-02T10:41:45;100774.72;;;23.30;29.57
35331;BME280;21441;52.190;20.910;2022-09-02T10:44:29;100778.84;;;22.56;30.02
35331;BME280;21441;52.190;20.910;2022-09-02T10:47:01;100777.28;;;22.84;29.99
35331;BME280;21441;52.190;20.910;2022-09-02T10:49:41;100771.38;;;22.75;29.42
35331;BME280;21441;52.190;20.910;2022-09-02T10:52:22;100777.97;;;23.03;29.42
35331;BME280;21441;52.190;20.910;2022-09-02T10:54:57;100784.72;;;23.00;29.59
35331;BME280;21441;52.190;20.910;2022-09-02T10:57:28;100770.34;;;23.74;28.10
35331;BME280;21441;52.190;20.910;2022-09-02T11:00:12;100772.38;;;23.21;28.42
35331;BME280;21441;52.190;20.910;2022-09-02T11:02:44;100761.56;;;23.26;28.77
35331;BME280;21441;52.190;20.910;2022-09-02T11:05:16;100768.09;;;23.71;27.99
35331;BME280;21441;52.190;20.910;2022-09-02T11:07:50;100765.69;;;24.03;27.83
35331;BME280;21441;52.190;20.910;2022-09-02T11:10:22;100768.09;;;23.71;29.18
35331;BME280;21441;52.190;20.910;2022-09-02T11:12:56;100774.69;;;23.58;28.06
35331;BME280;21441;52.190;20.910;2022-09-02T11:15:38;100764.13;;;24.07;27.56
35331;BME280;21441;52.190;20.910;2022-09-02T11:18:12;100768.31;;;24.49;27.24
35331;BME280;21441;52.190;20.910;2022-09-02T11:20:46;100761.88;;;24.55;28.13
35331;BME280;21441;52.190;20.910;2022-09-02T11:23:21;100768.03;;;23.37;28.96
35331;BME280;21441;52.190;20.910;2022-09-02T11:25:52;100766.53;;;23.87;28.79
35331;BME280;21441;52.190;20.910;2022-09-02T11:28:27;100760.16;;;24.49;27.83
35331;BME280;21441;52.190;20.910;2022-09-02T11:31:01;100753.81;;;24.65;27.26
35331;BME280;21441;52.190;20.910;2022-09-02T11:33:42;100755.19;;;23.78;27.80
35331;BME280;21441;52.190;20.910;2022-09-02T11:36:11;100751.06;;;23.93;28.66
35331;BME280;21441;52.190;20.910;2022-09-02T11:38:42;100751.09;;;24.65;27.57
35331;BME280;21441;52.190;20.910;2022-09-02T11:41:32;100746.47;;;25.10;27.80
35331;BME280;21441;52.190;20.910;2022-09-02T11:44:18;100749.28;;;23.53;29.28
35331;BME280;21441;52.190;20.910;2022-09-02T11:47:00;100741.31;;;24.91;27.85
35331;BME280;21441;52.190;20.910;2022-09-02T11:49:54;100731.38;;;25.51;27.77
35331;BME280;21441;52.190;20.910;2022-09-02T11:52:37;100724.47;;;26.08;26.84
35331;BME280;21441;52.190;20.910;2022-09-02T11:55:14;100733.81;;;25.53;26.62
35331;BME280;21441;52.190;20.910;2022-09-02T11:57:50;100736.00;;;25.24;27.25
35331;BME280;21441;52.190;20.910;2022-09-02T12:00:27;100729.84;;;24.89;27.58
35331;BME280;21441;52.190;20.910;2022-09-02T12:03:08;100714.53;;;25.32;26.87
35331;BME280;21441;52.190;20.910;2022-09-02T12:05:50;100716.44;;;25.32;27.06
35331;BME280;21441;52.190;20.910;2022-09-02T12:11:39;100716.00;;;25.45;26.50
35331;BME280;21441;52.190;20.910;2022-09-02T12:14:08;100711.47;;;25.07;27.04
35331;BME280;21441;52.190;20.910;2022-09-02T12:16:58;100703.78;;;25.85;25.55
35331;BME280;21441;52.190;20.910;2022-09-02T12:19:39;100708.56;;;25.68;25.77
35331;BME280;21441;52.190;20.910;2022-09-02T12:22:30;100705.66;;;26.60;25.20
35331;BME280;21441;52.190;20.910;2022-09-02T12:24:57;100702.56;;;26.46;25.55
35331;BME280;21441;52.190;20.910;2022-09-02T12:27:27;100697.03;;;26.30;25.10
35331;BME280;21441;52.190;20.910;2022-09-02T12:29:56;100698.31;;;26.18;25.06
35331;BME280;21441;52.190;20.910;2022-09-02T12:35:48;100706.63;;;24.87;26.22
35331;BME280;21441;52.190;20.910;2022-09-02T12:38:23;100693.78;;;27.02;24.99
35331;BME280;21441;52.190;20.910;2022-09-02T12:40:54;100695.53;;;27.69;23.65
35331;BME280;21441;52.190;20.910;2022-09-02T12:43:26;100694.97;;;27.83;24.07
35331;BME280;21441;52.190;20.910;2022-09-02T12:46:02;100687.31;;;27.90;24.23
35331;BME280;21441;52.190;20.910;2022-09-02T12:48:37;100688.69;;;27.72;24.60
35331;BME280;21441;52.190;20.910;2022-09-02T12:51:05;100690.44;;;26.89;24.83
35331;BME280;21441;52.190;20.910;2022-09-02T12:53:36;100697.28;;;26.29;26.02
35331;BME280;21441;52.190;20.910;2022-09-02T12:56:17;100691.28;;;26.90;25.42
35331;BME280;21441;52.190;20.910;2022-09-02T12:58:50;100684.56;;;28.00;24.07
35331;BME280;21441;52.190;20.910;2022-09-02T13:01:24;100688.13;;;28.01;24.04
35331;BME280;21441;52.190;20.910;2022-09-02T13:04:12;100690.59;;;27.76;23.99